sensor_id;sensor_type;location;lat;lon;timestamp;pressure;altitude;pressure_sealevel;temperature;humidity
30021;BME280;16861;52.294;7.760;2022-07-22T00:02:21;100215.28;;;20.42;64.16
30021;BME280;16861;52.294;7.760;2022-07-22T00:04:48;100212.19;;;20.37;64.25
30021;BME280;16861;52.294;7.760;2022-07-22T00:07:15;100216.84;;;20.35;64.48
30021;BME280;16861;52.294;7.760;2022-07-22T00:09:42;100219.81;;;20.32;64.35
30021;BME280;16861;52.294;7.760;2022-07-22T00:12:09;100221.78;;;20.30;64.34
30021;BME280;16861;52.294;7.760;2022-07-22T00:14:35;100224.59;;;20.28;64.75
30021;BME280;16861;52.294;7.760;2022-07-22T00:17:02;100220.25;;;20.27;64.43
30021;BME280;16861;52.294;7.760;2022-07-22T00:19:28;100229.09;;;20.28;64.67
30021;BME280;16861;52.294;7.760;2022-07-22T00:21:55;100231.75;;;20.28;64.33
30021;BME280;16861;52.294;7.760;2022-07-22T00:24:22;100229.09;;;20.28;64.60
30021;BME280;16861;52.294;7.760;2022-07-22T00:26:48;100231.75;;;20.28;64.29
30021;BME280;16861;52.294;7.760;2022-07-22T00:29:15;100230.78;;;20.29;64.44
30021;BME280;16861;52.294;7.760;2022-07-22T00:31:41;100235.28;;;20.28;64.47
30021;BME280;16861;52.294;7.760;2022-07-22T00:34:08;100234.44;;;20.28;64.29
30021;BME280;16861;52.294;7.760;2022-07-22T00:36:35;100236.41;;;20.26;64.42
30021;BME280;16861;52.294;7.760;2022-07-22T00:39:02;100234.69;;;20.25;64.20
30021;BME280;16861;52.294;7.760;2022-07-22T00:41:29;100240.06;;;20.25;64.46
30021;BME280;16861;52.294;7.760;2022-07-22T00:44:07;100238.81;;;20.19;64.57
30021;BME280;16861;52.294;7.760;2022-07-22T00:46:36;100234.16;;;20.21;64.05
30021;BME280;16861;52.294;7.760;2022-07-22T00:49:05;100233.28;;;20.21;64.18
30021;BME280;16861;52.294;7.760;2022-07-22T00:51:32;100231.59;;;20.20;64.51
30021;BME280;16861;52.294;7.760;2022-07-22T00:54:00;100228.25;;;20.17;64.48
30021;BME280;16861;52.294;7.760;2022-07-22T00:56:28;100239.06;;;20.16;64.50
30021;BME280;16861;52.294;7.760;2022-07-22T00:58:57;100236.53;;;20.14;64.44
30021;BME280;16861;52.294;7.760;2022-07-22T01:01:25;100237.53;;;20.13;64.38
30021;BME280;16861;52.294;7.760;2022-07-22T01:03:52;100243.84;;;20.12;64.25
30021;BME280;16861;52.294;7.760;2022-07-22T01:06:27;100239.47;;;20.11;64.20
30021;BME280;16861;52.294;7.760;2022-07-22T01:08:54;100236.94;;;20.10;64.61
30021;BME280;16861;52.294;7.760;2022-07-22T01:11:23;100240.59;;;20.09;64.42
30021;BME280;16861;52.294;7.760;2022-07-22T01:13:51;100241.72;;;20.06;64.19
30021;BME280;16861;52.294;7.760;2022-07-22T01:16:18;100241.03;;;20.04;64.05
30021;BME280;16861;52.294;7.760;2022-07-22T01:18:45;100241.28;;;20.01;64.44
30021;BME280;16861;52.294;7.760;2022-07-22T01:21:13;100241.44;;;19.99;64.25
30021;BME280;16861;52.294;7.760;2022-07-22T01:23:40;100240.69;;;19.97;64.43
30021;BME280;16861;52.294;7.760;2022-07-22T01:26:07;100254.31;;;19.94;64.41
30021;BME280;16861;52.294;7.760;2022-07-22T01:28:33;100249.13;;;19.92;64.44
30021;BME280;16861;52.294;7.760;2022-07-22T01:31:00;100243.06;;;19.90;64.49
30021;BME280;16861;52.294;7.760;2022-07-22T01:33:27;100234.34;;;19.88;64.23
30021;BME280;16861;52.294;7.760;2022-07-22T01:35:54;100238.97;;;19.86;64.27
30021;BME280;16861;52.294;7.760;2022-07-22T01:38:24;100249.94;;;19.83;64.95
30021;BME280;16861;52.294;7.760;2022-07-22T01:40:51;100244.59;;;19.83;64.58
30021;BME280;16861;52.294;7.760;2022-07-22T01:43:18;100240.22;;;19.82;64.84
30021;BME280;16861;52.294;7.760;2022-07-22T01:45:49;100249.94;;;19.83;64.65
30021;BME280;16861;52.294;7.760;2022-07-22T01:48:18;100246.41;;;19.83;64.74
30021;BME280;16861;52.294;7.760;2022-07-22T01:50:45;100253.59;;;19.82;64.89
30021;BME280;16861;52.294;7.760;2022-07-22T01:53:12;100249.94;;;19.83;64.88
30021;BME280;16861;52.294;7.760;2022-07-22T01:55:41;100254.41;;;19.83;64.53
30021;BME280;16861;52.294;7.760;2022-07-22T01:58:08;100252.59;;;19.83;64.42
30021;BME280;16861;52.294;7.760;2022-07-22T02:00:34;100252.88;;;19.80;64.44
30021;BME280;16861;52.294;7.760;2022-07-22T02:03:01;100249.50;;;19.78;64.59
30021;BME280;16861;52.294;7.760;2022-07-22T02:05:28;100253.41;;;19.74;64.51
30021;BME280;16861;52.294;7.760;2022-07-22T02:08:09;100252.13;;;19.68;64.74
30021;BME280;16861;52.294;7.760;2022-07-22T02:10:37;100256.47;;;19.69;64.40
30021;BME280;16861;52.294;7.760;2022-07-22T02:13:04;100249.59;;;19.66;64.52
30021;BME280;16861;52.294;7.760;2022-07-22T02:15:30;100252.53;;;19.63;64.39
30021;BME280;16861;52.294;7.760;2022-07-22T02:17:57;100258.16;;;19.60;64.69
30021;BME280;16861;52.294;7.760;2022-07-22T02:20:24;100247.72;;;19.57;64.52
30021;BME280;16861;52.294;7.760;2022-07-22T02:22:50;100249.66;;;19.55;64.54
30021;BME280;16861;52.294;7.760;2022-07-22T02:25:17;100249.97;;;19.52;64.67
30021;BME280;16861;52.294;7.760;2022-07-22T02:27:44;100250.09;;;19.50;65.00
30021;BME280;16861;52.294;7.760;2022-07-22T02:30:11;100248.53;;;19.48;65.15
30021;BME280;16861;52.294;7.760;2022-07-22T02:32:37;100243.31;;;19.46;65.23
30021;BME280;16861;52.294;7.760;2022-07-22T02:35:04;100246.00;;;19.46;65.22
30021;BME280;16861;52.294;7.760;2022-07-22T02:37:32;100250.47;;;19.46;65.01
30021;BME280;16861;52.294;7.760;2022-07-22T02:39:59;100251.34;;;19.46;64.66
30021;BME280;16861;52.294;7.760;2022-07-22T02:42:27;100248.53;;;19.48;64.83
30021;BME280;16861;52.294;7.760;2022-07-22T02:44:53;100252.19;;;19.47;64.99
30021;BME280;16861;52.294;7.760;2022-07-22T02:47:20;100252.19;;;19.47;65.00
30021;BME280;16861;52.294;7.760;2022-07-22T02:49:46;100251.09;;;19.49;64.86
30021;BME280;16861;52.294;7.760;2022-07-22T02:52:13;100247.56;;;19.49;64.95
30021;BME280;16861;52.294;7.760;2022-07-22T02:54:39;100246.84;;;19.47;64.93
30021;BME280;16861;52.294;7.760;2022-07-22T02:57:06;100247.69;;;19.47;64.66
30021;BME280;16861;52.294;7.760;2022-07-22T02:59:33;100246.00;;;19.46;65.08
30021;BME280;16861;52.294;7.760;2022-07-22T03:01:59;100242.34;;;19.47;64.87
30021;BME280;16861;52.294;7.760;2022-07-22T03:04:26;100248.53;;;19.48;65.07
30021;BME280;16861;52.294;7.760;2022-07-22T03:06:53;100247.69;;;19.47;65.06
30021;BME280;16861;52.294;7.760;2022-07-22T03:09:19;100243.19;;;19.48;65.13
30021;BME280;16861;52.294;7.760;2022-07-22T03:11:46;100252.91;;;19.49;64.81
30021;BME280;16861;52.294;7.760;2022-07-22T03:14:12;100258.09;;;19.50;64.95
30021;BME280;16861;52.294;7.760;2022-07-22T03:16:39;100260.78;;;19.50;65.00
30021;BME280;16861;52.294;7.760;2022-07-22T03:19:06;100259.78;;;19.51;65.27
30021;BME280;16861;52.294;7.760;2022-07-22T03:21:32;100259.66;;;19.53;65.21
30021;BME280;16861;52.294;7.760;2022-07-22T03:24:00;100272.75;;;19.56;65.50
30021;BME280;16861;52.294;7.760;2022-07-22T03:26:26;100265.69;;;19.55;65.45
30021;BME280;16861;52.294;7.760;2022-07-22T03:28:53;100269.22;;;19.56;65.06
30021;BME280;16861;52.294;7.760;2022-07-22T03:31:20;100270.22;;;19.55;65.12
30021;BME280;16861;52.294;7.760;2022-07-22T03:33:47;100272.16;;;19.52;64.62
30021;BME280;16861;52.294;7.760;2022-07-22T03:36:13;100267.94;;;19.50;64.45
30021;BME280;16861;52.294;7.760;2022-07-22T03:38:40;100267.34;;;19.46;64.17
30021;BME280;16861;52.294;7.760;2022-07-22T03:41:06;100268.59;;;19.42;64.07
30021;BME280;16861;52.294;7.760;2022-07-22T03:43:33;100261.72;;;19.39;64.04
30021;BME280;16861;52.294;7.760;2022-07-22T03:45:59;100270.97;;;19.35;64.03
30021;BME280;16861;52.294;7.760;2022-07-22T03:48:26;100272.91;;;19.33;64.08
30021;BME280;16861;52.294;7.760;2022-07-22T03:50:53;100272.31;;;19.30;64.55
30021;BME280;16861;52.294;7.760;2022-07-22T03:53:19;100277.78;;;19.28;64.30
30021;BME280;16861;52.294;7.760;2022-07-22T03:55:47;100282.44;;;19.26;64.12
30021;BME280;16861;52.294;7.760;2022-07-22T03:58:16;100284.38;;;19.24;64.21
30021;BME280;16861;52.294;7.760;2022-07-22T04:00:43;100278.19;;;19.23;64.23
30021;BME280;16861;52.294;7.760;2022-07-22T04:03:09;100274.66;;;19.23;64.31
30021;BME280;16861;52.294;7.760;2022-07-22T04:05:36;100273.81;;;19.22;64.21
30021;BME280;16861;52.294;7.760;2022-07-22T04:08:02;100281.69;;;19.24;64.18
30021;BME280;16861;52.294;7.760;2022-07-22T04:10:29;100278.31;;;19.22;63.93
30021;BME280;16861;52.294;7.760;2022-07-22T04:12:56;100280.13;;;19.21;64.44
30021;BME280;16861;52.294;7.760;2022-07-22T04:15:22;100278.44;;;19.20;64.38
30021;BME280;16861;52.294;7.760;2022-07-22T04:17:51;100274.22;;;19.18;64.37
30021;BME280;16861;52.294;7.760;2022-07-22T04:20:17;100279.56;;;19.18;64.48
30021;BME280;16861;52.294;7.760;2022-07-22T04:22:44;100277.88;;;19.17;64.21
30021;BME280;16861;52.294;7.760;2022-07-22T04:25:10;100284.16;;;19.16;64.36
30021;BME280;16861;52.294;7.760;2022-07-22T04:27:37;100285.88;;;19.17;64.66
30021;BME280;16861;52.294;7.760;2022-07-22T04:30:04;100286.84;;;19.16;64.60
30021;BME280;16861;52.294;7.760;2022-07-22T04:32:31;100286.84;;;19.16;64.36
30021;BME280;16861;52.294;7.760;2022-07-22T04:34:57;100293.88;;;19.17;64.93
30021;BME280;16861;52.294;7.760;2022-07-22T04:37:24;100287.69;;;19.16;64.74
30021;BME280;16861;52.294;7.760;2022-07-22T04:39:50;100287.56;;;19.18;64.94
30021;BME280;16861;52.294;7.760;2022-07-22T04:42:18;100289.38;;;19.17;65.00
30021;BME280;16861;52.294;7.760;2022-07-22T04:44:44;100290.00;;;19.21;64.93
30021;BME280;16861;52.294;7.760;2022-07-22T04:47:11;100285.47;;;19.21;64.82
30021;BME280;16861;52.294;7.760;2022-07-22T04:49:38;100286.34;;;19.22;64.50
30021;BME280;16861;52.294;7.760;2022-07-22T04:52:05;100283.66;;;19.22;64.72
30021;BME280;16861;52.294;7.760;2022-07-22T04:54:35;100283.66;;;19.22;64.93
30021;BME280;16861;52.294;7.760;2022-07-22T04:57:01;100277.34;;;19.23;64.79
30021;BME280;16861;52.294;7.760;2022-07-22T04:59:28;100272.88;;;19.23;64.68
30021;BME280;16861;52.294;7.760;2022-07-22T05:01:55;100278.06;;;19.25;64.67
30021;BME280;16861;52.294;7.760;2022-07-22T05:04:21;100281.44;;;19.27;64.62
30021;BME280;16861;52.294;7.760;2022-07-22T05:06:48;100282.31;;;19.27;64.69
30021;BME280;16861;52.294;7.760;2022-07-22T05:09:15;100282.16;;;19.29;64.85
30021;BME280;16861;52.294;7.760;2022-07-22T05:11:41;100283.84;;;19.30;64.88
30021;BME280;16861;52.294;7.760;2022-07-22T05:14:08;100287.22;;;19.32;64.59
30021;BME280;16861;52.294;7.760;2022-07-22T05:16:36;100285.28;;;19.34;64.74
30021;BME280;16861;52.294;7.760;2022-07-22T05:19:04;100278.84;;;19.37;64.74
30021;BME280;16861;52.294;7.760;2022-07-22T05:21:32;100284.03;;;19.38;64.81
30021;BME280;16861;52.294;7.760;2022-07-22T05:23:58;100284.75;;;19.40;64.77
30021;BME280;16861;52.294;7.760;2022-07-22T05:26:25;100289.09;;;19.42;64.86
30021;BME280;16861;52.294;7.760;2022-07-22T05:28:55;100288.16;;;19.43;64.81
30021;BME280;16861;52.294;7.760;2022-07-22T05:31:22;100287.03;;;19.45;64.70
30021;BME280;16861;52.294;7.760;2022-07-22T05:33:49;100286.91;;;19.47;64.80
30021;BME280;16861;52.294;7.760;2022-07-22T05:36:15;100286.75;;;19.48;64.74
30021;BME280;16861;52.294;7.760;2022-07-22T05:38:42;100290.13;;;19.50;64.79
30021;BME280;16861;52.294;7.760;2022-07-22T05:41:08;100295.22;;;19.53;64.72
30021;BME280;16861;52.294;7.760;2022-07-22T05:43:35;100289.59;;;19.57;64.55
30021;BME280;16861;52.294;7.760;2022-07-22T05:46:02;100293.81;;;19.59;64.71
30021;BME280;16861;52.294;7.760;2022-07-22T05:48:28;100299.75;;;19.63;64.45
30021;BME280;16861;52.294;7.760;2022-07-22T05:50:55;100297.91;;;19.63;64.34
30021;BME280;16861;52.294;7.760;2022-07-22T05:53:22;100304.00;;;19.65;64.44
30021;BME280;16861;52.294;7.760;2022-07-22T05:55:48;100299.34;;;19.67;64.40
30021;BME280;16861;52.294;7.760;2022-07-22T05:58:15;100300.06;;;19.70;64.52
30021;BME280;16861;52.294;7.760;2022-07-22T06:00:41;100308.66;;;19.73;64.21
30021;BME280;16861;52.294;7.760;2022-07-22T06:03:08;100314.72;;;19.75;64.48
30021;BME280;16861;52.294;7.760;2022-07-22T06:05:43;100313.47;;;19.79;64.18
30021;BME280;16861;52.294;7.760;2022-07-22T06:08:09;100311.38;;;19.83;64.36
30021;BME280;16861;52.294;7.760;2022-07-22T06:10:36;100320.09;;;19.85;64.01
30021;BME280;16861;52.294;7.760;2022-07-22T06:13:02;100316.47;;;19.86;63.98
30021;BME280;16861;52.294;7.760;2022-07-22T06:15:29;100318.13;;;19.87;63.84
30021;BME280;16861;52.294;7.760;2022-07-22T06:17:56;100320.81;;;19.87;63.91
30021;BME280;16861;52.294;7.760;2022-07-22T06:20:22;100319.69;;;19.90;63.93
30021;BME280;16861;52.294;7.760;2022-07-22T06:22:49;100316.88;;;19.91;63.88
30021;BME280;16861;52.294;7.760;2022-07-22T06:25:15;100314.91;;;19.93;64.39
30021;BME280;16861;52.294;7.760;2022-07-22T06:28:02;100311.97;;;19.97;63.94
30021;BME280;16861;52.294;7.760;2022-07-22T06:30:29;100311.63;;;20.01;63.81
30021;BME280;16861;52.294;7.760;2022-07-22T06:32:56;100316.66;;;20.04;63.45
30021;BME280;16861;52.294;7.760;2022-07-22T06:35:22;100313.88;;;20.06;63.36
30021;BME280;16861;52.294;7.760;2022-07-22T06:37:52;100316.16;;;20.11;63.25
30021;BME280;16861;52.294;7.760;2022-07-22T06:40:35;100324.03;;;20.12;63.18
30021;BME280;16861;52.294;7.760;2022-07-22T06:43:03;100328.13;;;20.16;63.33
30021;BME280;16861;52.294;7.760;2022-07-22T06:45:30;100324.16;;;20.21;63.26
30021;BME280;16861;52.294;7.760;2022-07-22T06:47:58;100326.56;;;20.24;63.19
30021;BME280;16861;52.294;7.760;2022-07-22T06:50:24;100314.63;;;20.28;62.59
30021;BME280;16861;52.294;7.760;2022-07-22T06:52:52;100316.03;;;20.32;62.69
30021;BME280;16861;52.294;7.760;2022-07-22T06:55:19;100318.31;;;20.37;62.83
30021;BME280;16861;52.294;7.760;2022-07-22T06:57:45;100317.88;;;20.41;62.34
30021;BME280;16861;52.294;7.760;2022-07-22T07:00:12;100319.31;;;20.46;62.24
30021;BME280;16861;52.294;7.760;2022-07-22T07:02:39;100315.50;;;20.48;61.72
30021;BME280;16861;52.294;7.760;2022-07-22T07:05:06;100317.06;;;20.51;61.64
30021;BME280;16861;52.294;7.760;2022-07-22T07:07:45;100310.59;;;20.53;61.58
30021;BME280;16861;52.294;7.760;2022-07-22T07:10:12;100312.97;;;20.56;61.42
30021;BME280;16861;52.294;7.760;2022-07-22T07:12:41;100316.25;;;20.60;61.38
30021;BME280;16861;52.294;7.760;2022-07-22T07:15:09;100313.28;;;20.63;61.08
30021;BME280;16861;52.294;7.760;2022-07-22T07:17:55;100313.84;;;20.67;61.15
30021;BME280;16861;52.294;7.760;2022-07-22T07:20:24;100302.03;;;20.69;60.57
30021;BME280;16861;52.294;7.760;2022-07-22T07:22:51;100307.78;;;20.75;60.73
30021;BME280;16861;52.294;7.760;2022-07-22T07:25:18;100302.19;;;20.78;60.80
30021;BME280;16861;52.294;7.760;2022-07-22T07:27:50;100301.03;;;20.80;60.67
30021;BME280;16861;52.294;7.760;2022-07-22T07:30:20;100304.13;;;20.86;60.20
30021;BME280;16861;52.294;7.760;2022-07-22T07:32:47;100311.91;;;20.89;60.59
30021;BME280;16861;52.294;7.760;2022-07-22T07:35:13;100301.78;;;20.92;60.10
30021;BME280;16861;52.294;7.760;2022-07-22T07:37:40;100307.66;;;20.96;59.79
30021;BME280;16861;52.294;7.760;2022-07-22T07:40:07;100305.56;;;21.00;59.79
30021;BME280;16861;52.294;7.760;2022-07-22T07:42:34;100308.81;;;21.03;60.28
30021;BME280;16861;52.294;7.760;2022-07-22T07:45:05;100301.31;;;21.07;60.33
30021;BME280;16861;52.294;7.760;2022-07-22T07:47:31;100308.78;;;21.13;60.03
30021;BME280;16861;52.294;7.760;2022-07-22T07:49:58;100304.84;;;21.17;59.46
30021;BME280;16861;52.294;7.760;2022-07-22T07:52:26;100304.25;;;21.24;59.43
30021;BME280;16861;52.294;7.760;2022-07-22T07:54:53;100303.97;;;21.27;59.06
30021;BME280;16861;52.294;7.760;2022-07-22T07:57:38;100300.03;;;21.31;58.68
30021;BME280;16861;52.294;7.760;2022-07-22T08:00:08;100310.72;;;21.31;58.43
30021;BME280;16861;52.294;7.760;2022-07-22T08:02:38;100309.59;;;21.33;58.29
30021;BME280;16861;52.294;7.760;2022-07-22T08:05:07;100306.78;;;21.35;57.99
30021;BME280;16861;52.294;7.760;2022-07-22T08:07:35;100306.78;;;21.35;57.80
30021;BME280;16861;52.294;7.760;2022-07-22T08:10:04;100305.78;;;21.36;58.33
30021;BME280;16861;52.294;7.760;2022-07-22T08:12:51;100303.78;;;21.38;58.01
30021;BME280;16861;52.294;7.760;2022-07-22T08:15:18;100303.78;;;21.38;57.56
30021;BME280;16861;52.294;7.760;2022-07-22T08:17:45;100303.97;;;21.37;57.17
30021;BME280;16861;52.294;7.760;2022-07-22T08:20:12;100303.09;;;21.36;57.41
30021;BME280;16861;52.294;7.760;2022-07-22T08:22:46;100308.47;;;21.36;57.13
30021;BME280;16861;52.294;7.760;2022-07-22T08:25:13;100303.25;;;21.34;57.13
30021;BME280;16861;52.294;7.760;2022-07-22T08:27:40;100312.28;;;21.33;56.97
30021;BME280;16861;52.294;7.760;2022-07-22T08:30:07;100304.38;;;21.32;56.70
30021;BME280;16861;52.294;7.760;2022-07-22T08:32:34;100309.06;;;21.30;56.99
30021;BME280;16861;52.294;7.760;2022-07-22T08:35:03;100316.38;;;21.28;56.99
30021;BME280;16861;52.294;7.760;2022-07-22T08:37:37;100313.97;;;21.25;56.63
30021;BME280;16861;52.294;7.760;2022-07-22T08:40:22;100319.63;;;21.21;56.75
30021;BME280;16861;52.294;7.760;2022-07-22T08:42:52;100315.97;;;21.22;56.04
30021;BME280;16861;52.294;7.760;2022-07-22T08:45:31;100306.38;;;21.20;56.18
30021;BME280;16861;52.294;7.760;2022-07-22T08:50:47;100310.75;;;21.21;56.19
30021;BME280;16861;52.294;7.760;2022-07-22T08:53:13;100321.44;;;21.21;56.22
30021;BME280;16861;52.294;7.760;2022-07-22T08:55:45;100309.19;;;21.18;55.86
30021;BME280;16861;52.294;7.760;2022-07-22T08:58:12;100309.06;;;21.20;56.43
30021;BME280;16861;52.294;7.760;2022-07-22T09:00:39;100315.09;;;21.22;56.43
30021;BME280;16861;52.294;7.760;2022-07-22T09:03:25;100316.38;;;21.18;56.58
30021;BME280;16861;52.294;7.760;2022-07-22T09:05:54;100321.19;;;21.24;56.75
30021;BME280;16861;52.294;7.760;2022-07-22T09:08:21;100330.03;;;21.25;55.94
30021;BME280;16861;52.294;7.760;2022-07-22T09:10:48;100323.72;;;21.26;55.76
30021;BME280;16861;52.294;7.760;2022-07-22T09:13:15;100322.00;;;21.25;56.13
30021;BME280;16861;52.294;7.760;2022-07-22T09:15:53;100323.00;;;21.24;55.73
30021;BME280;16861;52.294;7.760;2022-07-22T09:18:20;100327.22;;;21.26;55.88
30021;BME280;16861;52.294;7.760;2022-07-22T09:20:47;100328.06;;;21.27;55.55
30021;BME280;16861;52.294;7.760;2022-07-22T09:23:16;100327.22;;;21.26;55.27
30021;BME280;16861;52.294;7.760;2022-07-22T09:25:50;100321.88;;;21.26;55.47
30021;BME280;16861;52.294;7.760;2022-07-22T09:28:20;100323.00;;;21.24;55.17
30021;BME280;16861;52.294;7.760;2022-07-22T09:30:52;100330.19;;;21.23;55.17
30021;BME280;16861;52.294;7.760;2022-07-22T09:33:22;100325.53;;;21.25;55.59
30021;BME280;16861;52.294;7.760;2022-07-22T09:35:49;100321.72;;;21.28;55.39
30021;BME280;16861;52.294;7.760;2022-07-22T09:38:19;100316.09;;;21.31;55.40
30021;BME280;16861;52.294;7.760;2022-07-22T09:40:52;100326.22;;;21.37;55.58
30021;BME280;16861;52.294;7.760;2022-07-22T09:43:20;100328.47;;;21.42;55.55
30021;BME280;16861;52.294;7.760;2022-07-22T09:45:49;100329.72;;;21.47;55.29
30021;BME280;16861;52.294;7.760;2022-07-22T09:48:18;100330.81;;;21.55;54.95
30021;BME280;16861;52.294;7.760;2022-07-22T09:50:46;100322.22;;;21.61;54.83
30021;BME280;16861;52.294;7.760;2022-07-22T09:53:14;100322.47;;;21.68;54.27
30021;BME280;16861;52.294;7.760;2022-07-22T09:55:41;100327.41;;;21.72;53.79
30021;BME280;16861;52.294;7.760;2022-07-22T09:58:08;100329.66;;;21.77;54.23
30021;BME280;16861;52.294;7.760;2022-07-22T10:00:36;100327.53;;;21.81;54.04
30021;BME280;16861;52.294;7.760;2022-07-22T10:03:06;100325.41;;;21.84;53.48
30021;BME280;16861;52.294;7.760;2022-07-22T10:05:40;100329.31;;;21.90;53.82
30021;BME280;16861;52.294;7.760;2022-07-22T10:08:08;100324.91;;;21.99;54.30
30021;BME280;16861;52.294;7.760;2022-07-22T10:10:38;100323.47;;;22.05;53.72
30021;BME280;16861;52.294;7.760;2022-07-22T10:13:06;100324.56;;;22.12;54.16
30021;BME280;16861;52.294;7.760;2022-07-22T10:15:35;100314.25;;;22.17;53.75
30021;BME280;16861;52.294;7.760;2022-07-22T10:18:05;100319.13;;;22.22;52.80
30021;BME280;16861;52.294;7.760;2022-07-22T10:20:34;100332.13;;;22.26;53.00
30021;BME280;16861;52.294;7.760;2022-07-22T10:23:02;100326.44;;;22.30;52.25
30021;BME280;16861;52.294;7.760;2022-07-22T10:25:54;100325.91;;;22.26;52.53
30021;BME280;16861;52.294;7.760;2022-07-22T10:30:48;100328.13;;;22.31;52.44
30021;BME280;16861;52.294;7.760;2022-07-22T10:33:19;100329.28;;;22.28;52.11
30021;BME280;16861;52.294;7.760;2022-07-22T10:36:02;100318.72;;;22.26;52.51
30021;BME280;16861;52.294;7.760;2022-07-22T10:38:30;100324.88;;;22.27;53.56
30021;BME280;16861;52.294;7.760;2022-07-22T10:41:00;100320.25;;;22.29;52.02
30021;BME280;16861;52.294;7.760;2022-07-22T10:43:48;100323.81;;;22.20;52.38
30021;BME280;16861;52.294;7.760;2022-07-22T10:46:14;100320.16;;;22.21;52.25
30021;BME280;16861;52.294;7.760;2022-07-22T10:51:16;100323.88;;;22.10;52.68
30021;BME280;16861;52.294;7.760;2022-07-22T10:54:00;100321.09;;;22.02;52.90
30021;BME280;16861;52.294;7.760;2022-07-22T10:56:35;100321.94;;;22.02;52.93
30021;BME280;16861;52.294;7.760;2022-07-22T10:59:09;100322.09;;;22.00;53.97
30021;BME280;16861;52.294;7.760;2022-07-22T11:01:38;100319.94;;;22.04;53.17
30021;BME280;16861;52.294;7.760;2022-07-22T11:04:19;100319.56;;;21.99;52.60
30021;BME280;16861;52.294;7.760;2022-07-22T11:06:49;100312.91;;;22.03;52.31
30021;BME280;16861;52.294;7.760;2022-07-22T11:09:17;100315.44;;;22.05;52.36
30021;BME280;16861;52.294;7.760;2022-07-22T11:14:17;100307.63;;;22.11;52.48
30021;BME280;16861;52.294;7.760;2022-07-22T11:16:46;100307.88;;;22.18;52.28
30021;BME280;16861;52.294;7.760;2022-07-22T11:19:13;100300.53;;;22.20;52.57
30021;BME280;16861;52.294;7.760;2022-07-22T11:21:40;100301.91;;;22.24;52.70
30021;BME280;16861;52.294;7.760;2022-07-22T11:24:11;100302.28;;;22.30;52.36
30021;BME280;16861;52.294;7.760;2022-07-22T11:29:09;100298.25;;;22.44;52.62
30021;BME280;16861;52.294;7.760;2022-07-22T11:31:37;100297.34;;;22.53;52.13
30021;BME280;16861;52.294;7.760;2022-07-22T11:34:07;100296.28;;;22.64;52.17
30021;BME280;16861;52.294;7.760;2022-07-22T11:36:36;100290.56;;;22.77;52.18
30021;BME280;16861;52.294;7.760;2022-07-22T11:39:04;100284.78;;;22.90;51.97
30021;BME280;16861;52.294;7.760;2022-07-22T11:41:31;100284.53;;;23.01;51.90
30021;BME280;16861;52.294;7.760;2022-07-22T11:43:59;100279.91;;;23.12;51.38
30021;BME280;16861;52.294;7.760;2022-07-22T11:46:27;100272.91;;;23.19;51.00
30021;BME280;16861;52.294;7.760;2022-07-22T11:48:54;100274.78;;;23.27;50.80
30021;BME280;16861;52.294;7.760;2022-07-22T11:51:30;100279.00;;;23.29;49.89
30021;BME280;16861;52.294;7.760;2022-07-22T11:53:58;100277.56;;;23.35;50.25
30021;BME280;16861;52.294;7.760;2022-07-22T11:56:26;100288.81;;;23.39;49.61
30021;BME280;16861;52.294;7.760;2022-07-22T11:58:54;100285.47;;;23.37;49.43
30021;BME280;16861;52.294;7.760;2022-07-22T12:01:24;100289.31;;;23.34;49.66
30021;BME280;16861;52.294;7.760;2022-07-22T12:03:54;100289.75;;;23.29;48.84
30021;BME280;16861;52.294;7.760;2022-07-22T12:06:24;100282.69;;;23.28;49.03
30021;BME280;16861;52.294;7.760;2022-07-22T12:09:02;100296.78;;;23.22;48.54
30021;BME280;16861;52.294;7.760;2022-07-22T12:11:29;100296.06;;;23.20;48.87
30021;BME280;16861;52.294;7.760;2022-07-22T12:14:05;100287.97;;;23.12;49.06
30021;BME280;16861;52.294;7.760;2022-07-22T12:16:36;100290.63;;;23.12;48.89
30021;BME280;16861;52.294;7.760;2022-07-22T12:19:11;100283.38;;;23.04;49.51
30021;BME280;16861;52.294;7.760;2022-07-22T12:21:53;100281.84;;;23.01;49.77
30021;BME280;16861;52.294;7.760;2022-07-22T12:24:32;100277.69;;;23.07;49.57
30021;BME280;16861;52.294;7.760;2022-07-22T12:27:01;100277.91;;;23.14;49.44
30021;BME280;16861;52.294;7.760;2022-07-22T12:32:07;100259.53;;;23.27;49.93
30021;BME280;16861;52.294;7.760;2022-07-22T12:34:56;100261.16;;;23.38;50.04
30021;BME280;16861;52.294;7.760;2022-07-22T12:37:27;100268.47;;;23.63;50.82
30021;BME280;16861;52.294;7.760;2022-07-22T12:40:17;100256.63;;;23.82;49.23
30021;BME280;16861;52.294;7.760;2022-07-22T12:42:46;100254.56;;;24.11;50.10
30021;BME280;16861;52.294;7.760;2022-07-22T12:45:18;100251.75;;;24.37;49.47
30021;BME280;16861;52.294;7.760;2022-07-22T12:47:52;100245.53;;;24.70;49.65
30021;BME280;16861;52.294;7.760;2022-07-22T12:53:19;100247.13;;;25.46;49.33
30021;BME280;16861;52.294;7.760;2022-07-22T12:55:53;100243.16;;;25.82;48.51
30021;BME280;16861;52.294;7.760;2022-07-22T12:58:26;100239.56;;;26.21;47.91
30021;BME280;16861;52.294;7.760;2022-07-22T13:00:57;100252.66;;;26.56;46.18
30021;BME280;16861;52.294;7.760;2022-07-22T13:03:24;100250.78;;;26.80;45.71
30021;BME280;16861;52.294;7.760;2022-07-22T13:05:57;100246.59;;;26.92;44.43
30021;BME280;16861;52.294;7.760;2022-07-22T13:08:25;100237.97;;;26.97;44.96
30021;BME280;16861;52.294;7.760;2022-07-22T13:11:05;100245.53;;;27.02;44.49
30021;BME280;16861;52.294;7.760;2022-07-22T13:13:32;100238.44;;;27.01;44.24
30021;BME280;16861;52.294;7.760;2022-07-22T13:15:58;100230.16;;;27.02;44.09
30021;BME280;16861;52.294;7.760;2022-07-22T13:18:25;100236.03;;;27.06;44.17